Terminal Aerodrome Forecast
Issued by NWS Mobile, AL

Home | Current Version | Previous Version | Text Only | Print | Product List | Glossary On
Versions: 1 2 3 4 5 6 7 8 9 10 11 12 13 14 15 16 17 18 19 20 21 22
000
FTUS44 KMOB 062017 AAA
TAFMOB
TAF AMD
KMOB 062017Z 0620/0718 27007KT P6SM SCT021
     FM070000 32006KT P6SM BKN020
     FM071500 36005KT P6SM BKN020=

USA.gov is the U.S. government's official web portal to all federal, state and local government web resources and services.